createdAt,value
2022-12-17T00:00:07.085Z,97958.20
2022-12-17T00:02:33.721Z,97966.06
2022-12-17T00:05:02.071Z,97967.44
2022-12-17T00:07:28.578Z,97984.65
2022-12-17T00:09:58.315Z,97993.89
2022-12-17T00:12:24.789Z,97995.27
2022-12-17T00:14:51.290Z,97994.58
2022-12-17T00:17:18.449Z,97979.95
2022-12-17T00:19:44.892Z,97977.40
2022-12-17T00:22:11.425Z,97979.97
2022-12-17T00:24:37.866Z,97981.88
2022-12-17T00:27:04.409Z,97983.73
2022-12-17T00:29:30.947Z,97983.74
2022-12-17T00:31:57.916Z,97978.51
2022-12-17T00:34:24.469Z,97984.49
2022-12-17T00:36:51.287Z,98002.88
2022-12-17T00:39:17.934Z,98006.98
2022-12-17T00:41:44.316Z,98010.71
2022-12-17T00:44:10.940Z,98008.35
2022-12-17T00:46:37.365Z,98005.14
2022-12-17T00:49:03.937Z,98007.52
2022-12-17T00:51:30.717Z,98006.83
2022-12-17T00:53:57.211Z,98002.25
2022-12-17T00:56:23.610Z,97993.09
2022-12-17T00:58:50.107Z,97999.22
2022-12-17T01:01:16.663Z,97999.94
2022-12-17T01:03:43.325Z,98004.55
2022-12-17T01:06:10.010Z,98008.64
2022-12-17T01:08:36.442Z,98018.34
2022-12-17T01:11:05.887Z,98017.33
2022-12-17T01:13:32.324Z,98021.07
2022-12-17T01:16:03.928Z,98027.36
2022-12-17T01:18:30.473Z,98038.39
2022-12-17T01:20:57.405Z,98037.71
2022-12-17T01:23:23.939Z,98031.93
2022-12-17T01:25:54.377Z,98025.29
2022-12-17T01:28:24.390Z,98020.19
2022-12-17T01:30:51.033Z,98022.05
2022-12-17T01:33:17.437Z,98021.20
2022-12-17T01:35:43.972Z,98014.41
2022-12-17T01:38:15.580Z,98022.39
2022-12-17T01:40:41.990Z,98031.23
2022-12-17T01:43:13.047Z,98032.09
2022-12-17T01:45:45.309Z,98036.34
2022-12-17T01:48:16.875Z,98028.36
2022-12-17T01:50:50.176Z,98025.83
2022-12-17T01:53:22.143Z,98022.78
2022-12-17T01:55:49.395Z,98029.92
2022-12-17T01:58:16.143Z,98021.75
2022-12-17T02:00:42.765Z,98017.16
2022-12-17T02:03:17.140Z,98019.04
2022-12-17T02:05:48.976Z,98015.47
2022-12-17T02:08:34.131Z,98021.95
2022-12-17T02:11:11.546Z,98032.67
2022-12-17T02:13:42.699Z,98024.37
2022-12-17T02:16:14.037Z,98016.91
2022-12-17T02:18:49.079Z,98020.65
2022-12-17T02:21:15.589Z,98027.12
2022-12-17T02:23:59.277Z,98041.23
2022-12-17T02:26:36.791Z,98046.16
2022-12-17T02:29:06.781Z,98045.15
2022-12-17T02:31:40.853Z,98044.82
2022-12-17T02:34:07.382Z,98044.67
2022-12-17T02:36:35.434Z,98044.01
2022-12-17T02:39:02.067Z,98061.19
2022-12-17T02:41:39.253Z,98068.86
2022-12-17T02:44:07.844Z,98067.00
2022-12-17T02:46:34.981Z,98074.16
2022-12-17T02:49:01.433Z,98089.10
2022-12-17T02:51:28.590Z,98117.48
2022-12-17T02:53:55.027Z,98147.58
2022-12-17T02:56:22.842Z,98172.55
2022-12-17T02:58:49.321Z,98175.10
2022-12-17T03:01:16.530Z,98149.44
2022-12-17T03:03:48.676Z,98115.80
2022-12-17T03:06:16.784Z,98110.37
2022-12-17T03:08:43.283Z,98119.05
2022-12-17T03:11:09.730Z,98116.38
2022-12-17T03:13:36.478Z,98098.36
2022-12-17T03:16:17.680Z,98098.20
2022-12-17T03:18:44.182Z,98101.45
2022-12-17T03:21:10.722Z,98102.84
2022-12-17T03:23:37.314Z,98093.34
2022-12-17T03:26:07.390Z,98077.73
2022-12-17T03:28:33.930Z,98075.19
2022-12-17T03:31:01.135Z,98089.65
2022-12-17T03:33:30.900Z,98095.25
2022-12-17T03:35:57.289Z,98093.58
2022-12-17T03:38:23.756Z,98092.58
2022-12-17T03:40:51.034Z,98099.56
2022-12-17T03:43:17.573Z,98101.45
2022-12-17T03:45:52.164Z,98105.20
2022-12-17T03:48:18.848Z,98112.65
2022-12-17T03:50:45.240Z,98121.85
2022-12-17T03:53:11.709Z,98127.97
2022-12-17T03:55:38.322Z,98135.08
2022-12-17T03:58:04.803Z,98131.86
2022-12-17T04:00:31.346Z,98130.85
2022-12-17T04:02:58.108Z,98135.96
2022-12-17T04:05:24.731Z,98143.94
2022-12-17T04:07:51.693Z,98147.83
2022-12-17T04:10:18.194Z,98150.37
2022-12-17T04:12:44.665Z,98146.44
2022-12-17T04:15:11.288Z,98145.42
2022-12-17T04:17:37.676Z,98146.60
2022-12-17T04:20:05.176Z,98152.55
2022-12-17T04:22:31.629Z,98161.39
2022-12-17T04:24:58.069Z,98159.85
2022-12-17T04:27:24.615Z,98154.92
2022-12-17T04:29:51.156Z,98157.49
2022-12-17T04:32:17.592Z,98160.73
2022-12-17T04:34:44.018Z,98160.74
2022-12-17T04:37:10.572Z,98166.54
2022-12-17T04:39:36.981Z,98162.65
2022-12-17T04:42:03.645Z,98160.95
2022-12-17T04:44:30.100Z,98156.39
2022-12-17T04:46:56.639Z,98152.15
2022-12-17T04:49:23.078Z,98149.94
2022-12-17T04:51:49.619Z,98151.31
2022-12-17T04:54:16.161Z,98154.72
2022-12-17T04:56:42.640Z,98151.50
2022-12-17T04:59:09.138Z,98153.38
2022-12-17T05:01:35.652Z,98153.38
2022-12-17T05:04:02.474Z,98155.08
2022-12-17T05:06:28.998Z,98156.95
2022-12-17T05:08:55.605Z,98159.14
2022-12-17T05:11:22.961Z,98159.32
2022-12-17T05:13:49.602Z,98165.95
2022-12-17T05:16:16.082Z,98171.37
2022-12-17T05:18:42.762Z,98175.96
2022-12-17T05:21:09.431Z,98179.17
2022-12-17T05:23:36.239Z,98179.52
2022-12-17T05:26:13.907Z,98174.09
2022-12-17T05:28:40.423Z,98171.39
2022-12-17T05:31:07.046Z,98173.94
2022-12-17T05:33:34.055Z,98173.77
2022-12-17T05:36:02.088Z,98180.23
2022-12-17T05:38:28.739Z,98184.98
2022-12-17T05:40:59.344Z,98182.60
2022-12-17T05:43:25.907Z,98186.52
2022-12-17T05:45:52.762Z,98188.21
2022-12-17T05:48:19.293Z,98191.45
2022-12-17T05:50:51.886Z,98187.89
2022-12-17T05:53:18.294Z,98196.87
2022-12-17T05:55:49.043Z,98202.98
2022-12-17T05:58:15.588Z,98219.80
2022-12-17T06:00:42.127Z,98229.79
2022-12-17T06:03:08.957Z,98227.23
2022-12-17T06:05:35.620Z,98228.79
2022-12-17T06:08:06.442Z,98220.79
2022-12-17T06:10:32.922Z,98221.46
2022-12-17T06:12:59.343Z,98218.59
2022-12-17T06:15:25.882Z,98225.36
2022-12-17T06:17:57.461Z,98233.69
2022-12-17T06:20:23.782Z,98239.46
2022-12-17T06:23:05.500Z,98240.98
2022-12-17T06:25:31.915Z,98248.79
2022-12-17T06:28:02.453Z,98256.93
2022-12-17T06:30:29.092Z,98255.07
2022-12-17T06:33:06.922Z,98256.76
2022-12-17T06:35:33.349Z,98257.61
2022-12-17T06:38:01.712Z,98259.65
2022-12-17T06:40:28.326Z,98265.77
2022-12-17T06:42:55.903Z,98267.30
2022-12-17T06:45:22.368Z,98271.37
2022-12-17T06:47:48.803Z,98274.41
2022-12-17T06:50:15.305Z,98285.11
2022-12-17T06:52:41.696Z,98296.13
2022-12-17T06:55:08.849Z,98303.09
2022-12-17T06:57:40.360Z,98313.62
2022-12-17T07:00:08.542Z,98310.73
2022-12-17T07:02:35.018Z,98314.98
2022-12-17T07:05:01.649Z,98317.54
2022-12-17T07:07:28.021Z,98317.20
2022-12-17T07:09:54.415Z,98325.35
2022-12-17T07:12:20.864Z,98331.97
2022-12-17T07:14:47.258Z,98342.31
2022-12-17T07:17:13.695Z,98339.59
2022-12-17T07:19:40.272Z,98339.25
2022-12-17T07:22:06.918Z,98343.33
2022-12-17T07:24:33.361Z,98353.66
2022-12-17T07:26:59.901Z,98357.41
2022-12-17T07:29:26.333Z,98367.26
2022-12-17T07:31:52.876Z,98367.25
2022-12-17T07:34:19.551Z,98358.24
2022-12-17T07:36:46.071Z,98361.48
2022-12-17T07:39:12.482Z,98369.96
2022-12-17T07:41:39.034Z,98379.65
2022-12-17T07:44:05.847Z,98386.77
2022-12-17T07:46:32.266Z,98390.69
2022-12-17T07:48:58.773Z,98399.85
2022-12-17T07:51:25.303Z,98400.86
2022-12-17T07:53:51.837Z,98403.92
2022-12-17T07:56:19.092Z,98397.96
2022-12-17T07:58:45.631Z,98399.14
2022-12-17T08:01:12.268Z,98396.08
2022-12-17T08:03:39.616Z,98399.29
2022-12-17T08:06:06.686Z,98407.44
2022-12-17T08:08:33.068Z,98417.80
2022-12-17T08:10:59.709Z,98425.29
2022-12-17T08:13:26.205Z,98430.89
2022-12-17T08:15:53.261Z,98434.97
2022-12-17T08:18:26.065Z,98439.56
2022-12-17T08:20:54.021Z,98438.20
2022-12-17T08:23:20.757Z,98436.52
2022-12-17T08:25:47.235Z,98443.31
2022-12-17T08:28:41.211Z,98455.05
2022-12-17T08:31:00.330Z,98456.74
2022-12-17T08:33:27.061Z,98456.39
2022-12-17T08:35:57.822Z,98458.94
2022-12-17T08:38:24.361Z,98460.65
2022-12-17T08:40:51.120Z,98456.23
2022-12-17T08:43:17.645Z,98456.21
2022-12-17T08:45:51.960Z,98466.26
2022-12-17T08:48:18.508Z,98471.66
2022-12-17T08:50:44.943Z,98476.95
2022-12-17T08:53:11.592Z,98474.05
2022-12-17T08:55:38.031Z,98486.63
2022-12-17T08:58:04.447Z,98491.91
2022-12-17T09:00:30.934Z,98487.31
2022-12-17T09:03:02.125Z,98492.77
2022-12-17T09:05:28.689Z,98494.63
2022-12-17T09:08:00.243Z,98492.40
2022-12-17T09:10:26.783Z,98487.84
2022-12-17T09:12:53.324Z,98481.70
2022-12-17T09:15:19.901Z,98484.59
2022-12-17T09:17:47.179Z,98488.17
2022-12-17T09:20:13.830Z,98491.73
2022-12-17T09:22:40.303Z,98486.96
2022-12-17T09:25:07.375Z,98484.76
2022-12-17T09:27:33.799Z,98489.35
2022-12-17T09:30:00.336Z,98485.27
2022-12-17T09:32:27.435Z,98481.02
2022-12-17T09:34:53.802Z,98483.07
2022-12-17T09:37:20.257Z,98490.88
2022-12-17T09:39:46.725Z,98489.54
2022-12-17T09:42:24.937Z,98494.79
2022-12-17T09:44:58.093Z,98488.85
2022-12-17T09:47:46.445Z,98490.05
2022-12-17T09:50:15.742Z,98487.83
2022-12-17T09:52:43.810Z,98487.15
2022-12-17T09:55:23.885Z,98492.92
2022-12-17T09:57:50.725Z,98485.77
2022-12-17T10:00:23.725Z,98487.63
2022-12-17T10:02:50.629Z,98484.73
2022-12-17T10:05:29.879Z,98482.00
2022-12-17T10:07:57.425Z,98482.51
2022-12-17T10:10:27.540Z,98481.82
2022-12-17T10:12:53.916Z,98480.98
2022-12-17T10:15:20.369Z,98485.55
2022-12-17T10:17:46.795Z,98487.07
2022-12-17T10:20:31.165Z,98487.26
2022-12-17T10:22:57.633Z,98482.83
2022-12-17T10:25:24.019Z,98489.98
2022-12-17T10:27:50.502Z,98488.95
2022-12-17T10:30:17.483Z,98495.44
2022-12-17T10:32:43.975Z,98491.70
2022-12-17T10:35:36.627Z,98500.36
2022-12-17T10:38:44.500Z,98499.86
2022-12-17T10:41:24.732Z,98501.57
2022-12-17T10:43:51.237Z,98504.45
2022-12-17T10:46:26.553Z,98503.11
2022-12-17T10:49:09.760Z,98509.89
2022-12-17T10:51:38.331Z,98508.04
2022-12-17T10:54:13.390Z,98508.20
2022-12-17T10:56:39.808Z,98510.23
2022-12-17T10:59:13.175Z,98520.27
2022-12-17T11:01:41.462Z,98523.51
2022-12-17T11:04:23.457Z,98520.45
2022-12-17T11:06:51.032Z,98524.17
2022-12-17T11:09:30.457Z,98526.05
2022-12-17T11:11:56.956Z,98520.95
2022-12-17T11:14:26.710Z,98531.15
2022-12-17T11:17:05.023Z,98531.17
2022-12-17T11:19:36.376Z,98535.55
2022-12-17T11:22:21.346Z,98536.42
2022-12-17T11:25:13.050Z,98534.88
2022-12-17T11:27:48.425Z,98540.16
2022-12-17T11:30:16.893Z,98537.27
2022-12-17T11:33:17.976Z,98546.27
2022-12-17T11:35:55.586Z,98551.71
2022-12-17T11:38:46.494Z,98570.75
2022-12-17T11:41:21.313Z,98588.77
2022-12-17T11:44:03.614Z,98588.76
2022-12-17T11:46:39.130Z,98582.30
2022-12-17T11:49:15.374Z,98586.04
2022-12-17T11:52:14.212Z,98579.91
2022-12-17T11:54:59.143Z,98589.77
2022-12-17T11:57:47.254Z,98594.02
2022-12-17T12:00:13.681Z,98608.46
2022-12-17T12:03:18.509Z,98613.56
2022-12-17T12:05:58.944Z,98613.57
2022-12-17T12:08:34.332Z,98615.95
2022-12-17T12:11:15.101Z,98610.67
2022-12-17T12:14:02.943Z,98608.29
2022-12-17T12:16:46.719Z,98608.30
2022-12-17T12:19:31.964Z,98607.80
2022-12-17T12:22:15.327Z,98616.13
2022-12-17T12:24:57.108Z,98622.93
2022-12-17T12:27:43.030Z,98617.16
2022-12-17T12:30:20.605Z,98620.39
2022-12-17T12:33:21.240Z,98620.04
2022-12-17T12:35:48.701Z,98626.85
2022-12-17T12:38:26.835Z,98631.06
2022-12-17T12:41:11.579Z,98623.09
2022-12-17T12:43:43.136Z,98630.73
2022-12-17T12:46:15.457Z,98629.86
2022-12-17T12:48:47.889Z,98629.33
2022-12-17T12:51:27.209Z,98635.27
2022-12-17T12:54:02.740Z,98641.54
2022-12-17T12:56:36.580Z,98644.58
2022-12-17T12:59:31.022Z,98646.27
2022-12-17T13:01:57.904Z,98655.45
2022-12-17T13:04:36.155Z,98659.34
2022-12-17T13:07:02.691Z,98666.97
2022-12-17T13:09:48.230Z,98672.73
2022-12-17T13:12:29.984Z,98677.12
2022-12-17T13:15:13.465Z,98684.25
2022-12-17T13:17:45.452Z,98701.73
2022-12-17T13:20:34.304Z,98709.06
2022-12-17T13:23:09.877Z,98718.58
2022-12-17T13:25:37.073Z,98720.45
2022-12-17T13:28:03.906Z,98719.61
2022-12-17T13:30:38.526Z,98718.93
2022-12-17T13:33:15.003Z,98724.37
2022-12-17T13:36:16.609Z,98736.08
2022-12-17T13:39:01.713Z,98737.25
2022-12-17T13:41:31.293Z,98741.48
2022-12-17T13:44:02.093Z,98752.66
2022-12-17T13:46:48.871Z,98756.88
2022-12-17T13:49:27.117Z,98759.40
2022-12-17T13:52:19.878Z,98761.27
2022-12-17T13:54:46.723Z,98766.50
2022-12-17T13:57:19.996Z,98774.63
2022-12-17T13:59:52.376Z,98777.52
2022-12-17T14:02:31.935Z,98777.34
2022-12-17T14:05:07.245Z,98778.33
2022-12-17T14:07:38.944Z,98785.77
2022-12-17T14:10:14.914Z,98791.02
2022-12-17T14:12:41.667Z,98793.54
2022-12-17T14:15:26.727Z,98793.87
2022-12-17T14:17:54.015Z,98788.42
2022-12-17T14:20:23.431Z,98796.03
2022-12-17T14:22:53.709Z,98799.94
2022-12-17T14:25:23.766Z,98802.64
2022-12-17T14:28:00.351Z,98810.27
2022-12-17T14:30:42.885Z,98815.54
2022-12-17T14:33:35.449Z,98821.82
2022-12-17T14:36:21.312Z,98833.36
2022-12-17T14:38:55.792Z,98830.49
2022-12-17T14:41:25.347Z,98831.35
2022-12-17T14:43:57.483Z,98840.34
2022-12-17T14:46:24.409Z,98844.25
2022-12-17T14:48:58.669Z,98847.81
2022-12-17T14:51:29.032Z,98856.30
2022-12-17T14:54:20.243Z,98864.92
2022-12-17T14:56:48.992Z,98863.73
2022-12-17T14:59:35.186Z,98864.55
2022-12-17T15:02:08.022Z,98867.77
2022-12-17T15:04:37.584Z,98867.94
2022-12-17T15:07:06.657Z,98876.25
2022-12-17T15:09:39.570Z,98884.90
2022-12-17T15:12:06.135Z,98889.66
2022-12-17T15:14:32.643Z,98894.08
2022-12-17T15:16:59.212Z,98901.90
2022-12-17T15:19:25.882Z,98906.16
2022-12-17T15:21:52.536Z,98910.27
2022-12-17T15:24:20.865Z,98912.80
2022-12-17T15:26:47.731Z,98917.73
2022-12-17T15:29:14.751Z,98922.15
2022-12-17T15:31:41.567Z,98928.96
2022-12-17T15:34:11.214Z,98932.88
2022-12-17T15:36:37.825Z,98935.08
2022-12-17T15:39:04.427Z,98933.08
2022-12-17T15:41:30.927Z,98932.55
2022-12-17T15:43:57.296Z,98929.34
2022-12-17T15:46:24.051Z,98930.20
2022-12-17T15:48:51.013Z,98931.89
2022-12-17T15:51:19.727Z,98933.94
2022-12-17T15:53:47.319Z,98935.29
2022-12-17T15:56:23.678Z,98937.67
2022-12-17T15:58:50.544Z,98937.35
2022-12-17T16:01:17.984Z,98937.88
2022-12-17T16:03:44.835Z,98939.58
2022-12-17T16:06:30.323Z,98943.34
2022-12-17T16:09:15.578Z,98942.16
2022-12-17T16:11:42.087Z,98945.56
2022-12-17T16:14:26.913Z,98946.95
2022-12-17T16:16:56.314Z,98953.58
2022-12-17T16:19:23.056Z,98952.05
2022-12-17T16:21:49.599Z,98951.23
2022-12-17T16:24:16.339Z,98953.78
2022-12-17T16:26:42.878Z,98953.61
2022-12-17T16:29:09.388Z,98954.31
2022-12-17T16:31:36.131Z,98959.76
2022-12-17T16:34:03.010Z,98964.86
2022-12-17T16:36:29.650Z,98967.60
2022-12-17T16:38:56.291Z,98971.00
2022-12-17T16:41:22.894Z,98971.17
2022-12-17T16:43:49.773Z,98975.25
2022-12-17T16:46:28.673Z,98984.97
2022-12-17T16:48:56.901Z,98985.81
2022-12-17T16:51:28.801Z,98990.25
2022-12-17T16:53:56.916Z,98993.33
2022-12-17T16:56:26.024Z,98999.61
2022-12-17T16:58:52.669Z,99001.67
2022-12-17T17:01:25.334Z,99009.33
2022-12-17T17:03:52.607Z,99011.91
2022-12-17T17:06:19.950Z,99016.84
2022-12-17T17:08:47.057Z,99020.79
2022-12-17T17:11:16.416Z,99030.33
2022-12-17T17:13:42.896Z,99040.20
2022-12-17T17:16:10.856Z,99044.10
2022-12-17T17:18:38.863Z,99043.58
2022-12-17T17:21:15.779Z,99049.36
2022-12-17T17:23:42.907Z,99054.46
2022-12-17T17:26:10.144Z,99056.67
2022-12-17T17:28:37.919Z,99056.50
2022-12-17T17:31:07.848Z,99058.69
2022-12-17T17:33:40.463Z,99061.25
2022-12-17T17:36:23.589Z,99064.48
2022-12-17T17:38:52.483Z,99066.85
2022-12-17T17:41:21.692Z,99071.61
2022-12-17T17:44:12.615Z,99073.65
2022-12-17T17:46:40.173Z,99075.17
2022-12-17T17:49:08.463Z,99077.39
2022-12-17T17:52:07.950Z,99082.50
2022-12-17T17:54:23.730Z,99082.86
2022-12-17T17:56:50.183Z,99088.81
2022-12-17T17:59:17.747Z,99095.10
2022-12-17T18:01:47.561Z,99101.40
2022-12-17T18:04:17.251Z,99107.02
2022-12-17T18:07:02.539Z,99107.20
2022-12-17T18:09:31.653Z,99111.49
2022-12-17T18:11:58.029Z,99107.41
2022-12-17T18:14:24.526Z,99108.60
2022-12-17T18:16:50.992Z,99110.47
2022-12-17T18:19:19.960Z,99108.43
2022-12-17T18:21:47.215Z,99107.43
2022-12-17T18:24:16.558Z,99108.63
2022-12-17T18:26:44.611Z,99111.02
2022-12-17T18:29:20.142Z,99114.76
2022-12-17T18:31:51.511Z,99113.56
2022-12-17T18:34:21.626Z,99112.89
2022-12-17T18:36:49.651Z,99117.64
2022-12-17T18:39:19.529Z,99124.61
2022-12-17T18:41:47.699Z,99126.15
2022-12-17T18:44:16.696Z,99130.91
2022-12-17T18:46:43.381Z,99130.90
2022-12-17T18:49:12.974Z,99133.95
2022-12-17T18:51:42.268Z,99137.20
2022-12-17T18:54:14.486Z,99141.79
2022-12-17T18:57:00.417Z,99146.73
2022-12-17T18:59:31.048Z,99158.98
2022-12-17T19:01:58.965Z,99158.64
2022-12-17T19:04:26.789Z,99162.55
2022-12-17T19:06:54.230Z,99164.25
2022-12-17T19:09:24.284Z,99168.83
2022-12-17T19:11:52.062Z,99173.59
2022-12-17T19:14:20.053Z,99172.23
2022-12-17T19:16:46.521Z,99172.91
2022-12-17T19:19:13.955Z,99172.05
2022-12-17T19:21:40.983Z,99178.32
2022-12-17T19:24:11.071Z,99178.48
2022-12-17T19:26:37.672Z,99188.83
2022-12-17T19:29:04.587Z,99187.09
2022-12-17T19:31:32.264Z,99191.52
2022-12-17T19:34:01.049Z,99195.25
2022-12-17T19:36:29.938Z,99195.77
2022-12-17T19:38:58.946Z,99197.99
2022-12-17T19:41:27.190Z,99202.78
2022-12-17T19:43:59.214Z,99205.86
2022-12-17T19:46:26.655Z,99204.36
2022-12-17T19:48:54.297Z,99208.81
2022-12-17T19:51:27.864Z,99212.22
2022-12-17T19:53:54.952Z,99212.91
2022-12-17T19:56:24.686Z,99215.30
2022-12-17T19:58:54.088Z,99218.20
2022-12-17T20:01:26.196Z,99225.01
2022-12-17T20:03:54.657Z,99224.52
2022-12-17T20:06:24.298Z,99226.74
2022-12-17T20:08:51.324Z,99231.34
2022-12-17T20:11:18.906Z,99234.91
2022-12-17T20:13:48.753Z,99235.25
2022-12-17T20:16:19.392Z,99234.73
2022-12-17T20:18:45.942Z,99242.89
2022-12-17T20:21:12.523Z,99245.42
2022-12-17T20:23:39.066Z,99249.65
2022-12-17T20:26:08.109Z,99249.48
2022-12-17T20:28:35.996Z,99256.28
2022-12-17T20:31:04.311Z,99258.96
2022-12-17T20:33:31.671Z,99258.77
2022-12-17T20:36:10.534Z,99264.20
2022-12-17T20:38:38.076Z,99270.48
2022-12-17T20:41:17.289Z,99281.84
2022-12-17T20:43:44.449Z,99283.20
2022-12-17T20:46:11.454Z,99285.41
2022-12-17T20:48:40.560Z,99293.91
2022-12-17T20:51:15.952Z,99297.98
2022-12-17T20:53:43.617Z,99302.89
2022-12-17T20:56:13.813Z,99311.18
2022-12-17T20:58:41.584Z,99315.73
2022-12-17T21:01:17.957Z,99318.23
2022-12-17T21:03:45.526Z,99321.77
2022-12-17T21:06:17.617Z,99324.95
2022-12-17T21:08:49.671Z,99328.30
2022-12-17T21:11:18.665Z,99332.70
2022-12-17T21:13:45.839Z,99337.13
2022-12-17T21:16:19.266Z,99338.98
2022-12-17T21:18:46.199Z,99340.03
2022-12-17T21:21:15.856Z,99346.33
2022-12-17T21:23:42.768Z,99351.73
2022-12-17T21:26:13.597Z,99354.45
2022-12-17T21:28:41.633Z,99356.88
2022-12-17T21:31:19.732Z,99358.27
2022-12-17T21:33:47.533Z,99358.92
2022-12-17T21:36:15.507Z,99358.55
2022-12-17T21:38:42.705Z,99371.13
2022-12-17T21:41:14.647Z,99375.73
2022-12-17T21:43:41.594Z,99378.23
2022-12-17T21:46:10.338Z,99382.80
2022-12-17T21:48:41.941Z,99389.35
2022-12-17T21:51:11.667Z,99389.46
2022-12-17T21:53:39.224Z,99398.77
2022-12-17T21:56:11.006Z,99404.52
2022-12-17T21:58:38.222Z,99406.69
2022-12-17T22:01:09.523Z,99409.21
2022-12-17T22:03:44.457Z,99412.70
2022-12-17T22:06:14.290Z,99423.51
2022-12-17T22:08:42.319Z,99426.84
2022-12-17T22:11:10.911Z,99431.52
2022-12-17T22:13:39.401Z,99434.67
2022-12-17T22:16:06.822Z,99436.12
2022-12-17T22:18:33.384Z,99437.91
2022-12-17T22:21:01.054Z,99436.48
2022-12-17T22:23:27.621Z,99439.48
2022-12-17T22:25:54.422Z,99438.05
2022-12-17T22:28:20.874Z,99443.98
2022-12-17T22:30:47.332Z,99444.26
2022-12-17T22:34:02.257Z,99455.41
2022-12-17T22:38:11.315Z,99459.42
2022-12-17T22:42:58.188Z,99464.95
2022-12-17T22:44:35.014Z,99471.70
2022-12-17T22:44:45.404Z,99470.12
2022-12-17T22:47:08.237Z,99472.95
2022-12-17T22:49:34.778Z,99470.36
2022-12-17T22:52:01.210Z,99473.23
2022-12-17T22:54:27.839Z,99477.27
2022-12-17T22:57:31.239Z,99480.10
2022-12-17T22:59:41.217Z,99485.48
2022-12-17T23:02:07.901Z,99482.20
2022-12-17T23:04:34.855Z,99483.49
2022-12-17T23:07:01.345Z,99485.14
2022-12-17T23:09:28.136Z,99486.79
2022-12-17T23:11:54.631Z,99483.25
2022-12-17T23:14:21.189Z,99485.05
2022-12-17T23:16:47.705Z,99487.88
2022-12-17T23:19:14.264Z,99488.95
2022-12-17T23:21:40.867Z,99487.19
2022-12-17T23:24:07.997Z,99496.55
2022-12-17T23:26:36.313Z,99501.58
2022-12-17T23:29:09.118Z,99507.23
2022-12-17T23:31:38.431Z,99512.20
2022-12-17T23:34:05.860Z,99517.92
2022-12-17T23:36:33.139Z,99524.51
2022-12-17T23:38:59.866Z,99524.05
2022-12-17T23:41:28.865Z,99522.90
2022-12-17T23:43:56.257Z,99539.81
2022-12-17T23:46:24.784Z,99543.98
2022-12-17T23:48:51.575Z,99546.70
2022-12-17T23:51:19.882Z,99549.70
2022-12-17T23:53:46.587Z,99551.38
2022-12-17T23:56:15.805Z,99552.48
2022-12-17T23:58:44.408Z,99557.41
